sim
Sign-in with your pilot id or email,
or register
Callsign
Passwort

Schedule Details

Flight Number: OEO6525
Departure: Paris Charles de Gaulle Airport (LFPG) at 09:35
Arrival: Mumbai Chhatrapati Shivaji International Airport (VABB) at 18:20

Weather Information
Getting current METAR information for LFPG 100000Z 27005KT CAVOK 03/M01 Q1027 NOSIG
Getting current METAR information for VABB 100000Z 12003KT 2500 HZ NSC 26/20 Q1012 NOSIG

Schedule Frequency

Route Map